aviador You're here:

TAPA Decoded Metar

ANTIGUA in LEEWARD ISLANDS
Report Time2017-08-18 23:00:00
UTC Time2017-08-18 23:40:51
Flight Rules vfr VFR
Wind070° at 12 kt
W.Decomp.*RWY 07: 11.8 kt HW 2.3 kt RCW
W.Rank070° ranks 4
Current wind is above 070° avg. (9.9)
Visibility9999 m
Phenomena:N/A
Clouds:Few TCU 017 Hf
Expected CloudBase > 1,200 ft AGL from Temp-Dew spread
CeilingNone
Temp28°C (ISA +13)
Dew Point25°C (84% RH)
Heat Index32.7°C
QNH1011 hPa
Density Alt2,034 ft
Elevation46 ft
Report Wrong Elevation
Raw Report
METAR TAPA 182300Z 07012KT 9999 FEW017TCU 28/25 Q1011 TEMPO SHRA=

Extra information for TAPA:More info

Metar Taf Metar & Taf Last 4 Metars F.Rules Stats Wind Profile Meteogram Temp Stats Airport Information Weather charts Add Link Nearby VenuesMetar ALERT Operation Metar Decoded Social comments